首页
METAR-TAF:

METAR-TAF

机场 :

卡尔维, 法国

纬度: 42-32N, 经度: 008-48E, 海拔: 64米

当前天气观测

该预报发布于42分钟前的09:30 UTC
风速2节,风向多变
温度 15°C
湿度 51%
气压 1017 hPa
能见度10公里或以上
1500米以下无云,无积雨云

METAR: LFKC 050930Z AUTO VRB02KT CAVOK 15/05 Q1017 NOSIG

时间: 11:12 (10:12 UTC)

预报

该预报发布于2小时和12分钟前的08:00 UTC
预报有效从05日的 09点(UTC)到 06日的 09点(UTC)
风速4节,风向
能见度10公里或以上
少量云层高于4500英尺
短暂存在
从 05日的 10点(UTC)到 05日的 16点(UTC)
风速10节,风向

TAF: LFKC 050800Z 0509/0609 17004KT 9999 FEW045 TX15/0512Z TN03/0605Z TEMPO 0510/0516 35010KT

超过4000个机场的气象观测和天气预报(METAR&TAF报告)。

可查询的气象台以黄色和红色小点在地图上表示。

将鼠标移到小点上方,可查看气象台名称。

然后点击查看天气观测和预报。

如需切换地图:点击带黑十字的绿色按钮放大地图;点击带横线的绿色按钮缩小地图;或者点击绿色箭头查看邻近地区的地图。


METAR-TAF: